Schneifelwetter: Wetterstation Hallschlag, 537 m . NN
Wetterdaten: Samstag, 03.11.2012
Datum Zeit Temp. A. Feuchte A. Luftdruck Regen Wind Richtung Richtung Sonnenschein T Regen Taupunkt Windchill
03.11.2012 00:09 3,3 C 95 % 1000 hPa 0,0 l/m 25,0 km/h (4 Bft) W-SW45 240 0 min 0 min 2,6 C -7,2 C
03.11.2012 00:24 3,3 C 95 % 1000 hPa 1,8 l/m 34,7 km/h (5 Bft) W-SW45 240 0 min 15 min 2,6 C -9,9 C
03.11.2012 00:39 3,3 C 95 % 1000 hPa 0,0 l/m 23,3 km/h (4 Bft) SW22.5 230 0 min 0 min 2,6 C -6,7 C
03.11.2012 00:54 3,3 C 95 % 1000 hPa 0,0 l/m 25,1 km/h (4 Bft) SW45 235 0 min 0 min 2,6 C -7,3 C
03.11.2012 01:09 3,3 C 95 % 1000 hPa 0,0 l/m 19,9 km/h (4 Bft) W-SW45 250 0 min 0 min 2,6 C -5,3 C
03.11.2012 01:24 3,3 C 95 % 1000 hPa 0,0 l/m 21,3 km/h (4 Bft) SW45 235 0 min 0 min 2,6 C -5,9 C
03.11.2012 01:39 3,3 C 95 % 1000 hPa 0,0 l/m 29,6 km/h (5 Bft) SW45 230 0 min 0 min 2,6 C -8,7 C
03.11.2012 01:54 3,3 C 95 % 1000 hPa 0,0 l/m 24,8 km/h (4 Bft) W-SW45 245 0 min 0 min 2,6 C -7,2 C
03.11.2012 02:09 3,3 C 95 % 1000 hPa 0,0 l/m 24,0 km/h (4 Bft) SW45 230 0 min 0 min 2,6 C -6,9 C
03.11.2012 02:24 3,3 C 95 % 1000 hPa 0,0 l/m 25,5 km/h (4 Bft) SW45 230 0 min 0 min 2,6 C -7,4 C
03.11.2012 02:39 3,3 C 95 % 1000 hPa 0,0 l/m 23,9 km/h (4 Bft) SW45 225 0 min 0 min 2,6 C -6,9 C
03.11.2012 02:54 3,3 C 95 % 1000 hPa 0,0 l/m 26,2 km/h (4 Bft) SW22.5 225 0 min 0 min 2,6 C -7,6 C
03.11.2012 03:09 3,2 C 95 % 1000 hPa 0,0 l/m 22,8 km/h (4 Bft) SW45 215 0 min 0 min 2,5 C -6,6 C
03.11.2012 03:24 3,1 C 95 % 1000 hPa 0,0 l/m 25,7 km/h (4 Bft) W-SW22.5 240 0 min 0 min 2,4 C -7,8 C
03.11.2012 03:39 3,0 C 95 % 1000 hPa 0,0 l/m 23,4 km/h (4 Bft) W-SW45 240 0 min 0 min 2,3 C -7,1 C
03.11.2012 03:54 2,9 C 95 % 1000 hPa 0,0 l/m 26,1 km/h (4 Bft) W-SW45 245 0 min 0 min 2,2 C -8,2 C
03.11.2012 04:09 2,9 C 96 % 1000 hPa 0,0 l/m 28,8 km/h (4 Bft) SW45 235 0 min 0 min 2,3 C -9,0 C
03.11.2012 04:24 3,0 C 96 % 1000 hPa 0,0 l/m 17,3 km/h (3 Bft) SW45 220 0 min 0 min 2,4 C -4,5 C
03.11.2012 04:39 3,1 C 96 % 1000 hPa 0,0 l/m 18,5 km/h (3 Bft) S-SW45 205 0 min 0 min 2,5 C -5,0 C
03.11.2012 04:54 3,1 C 95 % 1000 hPa 0,0 l/m 22,8 km/h (4 Bft) SW22.5 220 0 min 0 min 2,4 C -6,7 C
03.11.2012 05:09 3,1 C 95 % 1000 hPa 0,0 l/m 21,0 km/h (4 Bft) SW22.5 215 0 min 0 min 2,4 C -6,0 C
03.11.2012 05:24 3,0 C 95 % 999 hPa 0,0 l/m 14,5 km/h (3 Bft) S45 175 0 min 0 min 2,3 C -3,1 C
03.11.2012 05:39 3,0 C 96 % 999 hPa 0,0 l/m 15,4 km/h (3 Bft) S-SW45 195 0 min 0 min 2,4 C -3,6 C
03.11.2012 05:54 3,1 C 96 % 999 hPa 0,0 l/m 13,6 km/h (3 Bft) SW22.5 215 0 min 0 min 2,5 C -2,4 C
03.11.2012 06:09 3,2 C 96 % 999 hPa 0,0 l/m 14,5 km/h (3 Bft) SW22.5 215 0 min 0 min 2,6 C -2,8 C
03.11.2012 06:24 3,4 C 96 % 999 hPa 0,0 l/m 19,1 km/h (3 Bft) SW45 225 0 min 0 min 2,8 C -4,9 C
03.11.2012 06:39 3,4 C 96 % 999 hPa 0,3 l/m 21,4 km/h (4 Bft) SW45 220 0 min 15 min 2,8 C -5,8 C
03.11.2012 06:54 3,4 C 96 % 999 hPa 0,0 l/m 9,6 km/h (2 Bft) S-SW45 210 0 min 0 min 2,8 C 0,6 C
03.11.2012 07:09 3,5 C 96 % 999 hPa 0,3 l/m 17,1 km/h (3 Bft) S45 190 0 min 15 min 2,9 C -3,8 C
03.11.2012 07:24 3,6 C 96 % 999 hPa 0,3 l/m 17,8 km/h (3 Bft) S-SW45 195 0 min 15 min 3,0 C -4,0 C
03.11.2012 07:39 3,7 C 96 % 999 hPa 0,0 l/m 20,8 km/h (4 Bft) SW45 225 0 min 0 min 3,1 C -5,2 C
03.11.2012 07:54 3,8 C 96 % 999 hPa 0,6 l/m 16,2 km/h (3 Bft) SW22.5 215 0 min 15 min 3,2 C -3,0 C
03.11.2012 08:09 3,8 C 96 % 999 hPa 0,6 l/m 19,9 km/h (4 Bft) S-SW45 200 0 min 15 min 3,2 C -4,7 C
03.11.2012 08:24 3,8 C 96 % 999 hPa 0,3 l/m 27,9 km/h (4 Bft) SW22.5 215 0 min 15 min 3,2 C -7,5 C
03.11.2012 08:39 3,8 C 96 % 999 hPa 0,3 l/m 27,5 km/h (4 Bft) S-SW45 205 0 min 15 min 3,2 C -7,4 C
03.11.2012 08:54 3,9 C 96 % 999 hPa 0,0 l/m 20,6 km/h (4 Bft) S45 185 0 min 0 min 3,3 C -4,8 C
03.11.2012 09:09 4,2 C 96 % 998 hPa 0,0 l/m 22,3 km/h (4 Bft) S-SW45 195 0 min 0 min 3,6 C -5,1 C
03.11.2012 09:24 4,4 C 97 % 998 hPa 0,3 l/m 17,0 km/h (3 Bft) S45 175 0 min 15 min 4,0 C -2,6 C
03.11.2012 09:39 4,5 C 97 % 998 hPa 0,0 l/m 15,0 km/h (3 Bft) S-SW45 205 0 min 0 min 4,1 C -1,5 C
03.11.2012 09:54 4,6 C 97 % 997 hPa 0,0 l/m 20,8 km/h (4 Bft) S45 170 0 min 0 min 4,2 C -4,0 C
03.11.2012 10:09 4,5 C 97 % 997 hPa 0,0 l/m 27,0 km/h (4 Bft) S-SO45 165 0 min 0 min 4,1 C -6,2 C
03.11.2012 10:31 4,5 C 97 % 997 hPa 0,3 l/m 24,6 km/h (4 Bft) S22.5 175 0 min 22 min 4,1 C -5,5 C
03.11.2012 10:45 4,7 C 97 % 996 hPa 0,3 l/m 21,6 km/h (4 Bft) S22.5 170 0 min 14 min 4,3 C -4,2 C
03.11.2012 11:00 4,7 C 97 % 996 hPa 0,3 l/m 22,8 km/h (4 Bft) S45 170 0 min 15 min 4,3 C -4,6 C
03.11.2012 11:15 4,7 C 97 % 997 hPa 0,6 l/m 18,7 km/h (3 Bft) S-SO22.5 160 0 min 15 min 4,3 C -3,0 C
03.11.2012 11:30 4,7 C 97 % 997 hPa 3,3 l/m 16,4 km/h (3 Bft) W-NW45 285 0 min 15 min 4,3 C -2,0 C
03.11.2012 11:45 4,8 C 97 % 997 hPa 2,1 l/m 10,2 km/h (2 Bft) W22.5 260 0 min 15 min 4,4 C 1,7 C
03.11.2012 12:00 5,1 C 98 % 997 hPa 1,8 l/m 17,3 km/h (3 Bft) W22.5 270 0 min 15 min 4,8 C -1,9 C
03.11.2012 12:15 5,3 C 97 % 997 hPa 1,2 l/m 18,3 km/h (3 Bft) SW45 220 0 min 15 min 4,9 C -2,1 C
03.11.2012 12:30 5,6 C 97 % 996 hPa 0,6 l/m 5,1 km/h (1 Bft) SW 220 0 min 15 min 5,2 C 5,6 C
03.11.2012 12:45 5,8 C 97 % 996 hPa 0,0 l/m 10,7 km/h (2 Bft) S22.5 185 0 min 0 min 5,4 C 2,5 C
03.11.2012 13:00 6,3 C 98 % 996 hPa 0,0 l/m 29,0 km/h (5 Bft) S-SW45 205 0 min 0 min 6,0 C -4,3 C
03.11.2012 13:15 6,8 C 97 % 996 hPa 0,0 l/m 36,2 km/h (5 Bft) W-SW22.5 250 0 min 0 min 6,4 C -5,2 C
03.11.2012 13:30 7,2 C 97 % 996 hPa 0,0 l/m 41,2 km/h (6 Bft) W-SW45 250 0 min 0 min 6,8 C -5,4 C
03.11.2012 13:45 7,4 C 97 % 996 hPa 0,0 l/m 35,4 km/h (5 Bft) W-SW45 250 0 min 0 min 7,0 C -4,2 C
03.11.2012 14:00 6,9 C 96 % 997 hPa 0,6 l/m 40,7 km/h (6 Bft) W67.5 275 0 min 15 min 6,3 C -5,8 C
03.11.2012 14:15 6,8 C 96 % 997 hPa 0,3 l/m 41,8 km/h (6 Bft) W67.5 270 0 min 15 min 6,2 C -6,1 C
03.11.2012 14:30 6,8 C 95 % 998 hPa 0,0 l/m 34,8 km/h (5 Bft) W45 270 0 min 0 min 6,1 C -4,9 C
03.11.2012 14:45 6,8 C 95 % 998 hPa 0,0 l/m 39,2 km/h (6 Bft) W45 270 0 min 0 min 6,1 C -5,7 C
03.11.2012 15:00 6,7 C 94 % 998 hPa 0,0 l/m 39,3 km/h (6 Bft) W45 260 0 min 0 min 5,8 C -5,9 C
03.11.2012 15:15 6,4 C 94 % 999 hPa 0,0 l/m 31,1 km/h (5 Bft) W45 260 0 min 0 min 5,5 C -4,7 C
03.11.2012 15:30 6,3 C 94 % 999 hPa 0,0 l/m 30,7 km/h (5 Bft) W-SW45 250 0 min 0 min 5,4 C -4,7 C
03.11.2012 15:45 6,2 C 94 % 999 hPa 0,0 l/m 29,6 km/h (5 Bft) W45 260 0 min 0 min 5,3 C -4,6 C
03.11.2012 16:00 6,0 C 94 % 999 hPa 0,0 l/m 17,6 km/h (3 Bft) W22.5 265 0 min 0 min 5,1 C -0,9 C
03.11.2012 16:15 5,8 C 94 % 1000 hPa 0,0 l/m 21,5 km/h (4 Bft) W45 270 0 min 0 min 4,9 C -2,7 C
03.11.2012 16:30 5,5 C 94 % 1000 hPa 0,0 l/m 23,6 km/h (4 Bft) W-SW45 245 0 min 0 min 4,6 C -3,8 C
03.11.2012 16:45 5,2 C 94 % 1000 hPa 0,0 l/m 23,5 km/h (4 Bft) W-SW45 255 0 min 0 min 4,3 C -4,2 C
03.11.2012 17:00 4,9 C 94 % 1000 hPa 0,0 l/m 16,4 km/h (3 Bft) W22.5 260 0 min 0 min 4,0 C -1,7 C
03.11.2012 17:15 4,8 C 94 % 1000 hPa 0,0 l/m 8,5 km/h (2 Bft) W-SW22.5 250 0 min 0 min 3,9 C 3,0 C
03.11.2012 17:30 4,6 C 95 % 1000 hPa 0,0 l/m 16,1 km/h (3 Bft) W-SW45 240 0 min 0 min 3,9 C -2,0 C
03.11.2012 17:45 4,3 C 95 % 1000 hPa 0,0 l/m 16,0 km/h (3 Bft) W-SW22.5 255 0 min 0 min 3,6 C -2,3 C
03.11.2012 18:00 4,4 C 96 % 1000 hPa 0,0 l/m 20,0 km/h (4 Bft) SW22.5 235 0 min 0 min 3,8 C -3,9 C
03.11.2012 18:15 4,4 C 95 % 1001 hPa 0,0 l/m 19,5 km/h (3 Bft) SW45 230 0 min 0 min 3,7 C -3,7 C
03.11.2012 18:30 4,2 C 95 % 1001 hPa 0,0 l/m 20,0 km/h (4 Bft) W-SW22.5 240 0 min 0 min 3,5 C -4,2 C
03.11.2012 18:45 3,4 C 94 % 1001 hPa 0,0 l/m 8,9 km/h (2 Bft) W-SW22.5 250 0 min 0 min 2,5 C 1,2 C
03.11.2012 19:00 2,6 C 94 % 1001 hPa 0,0 l/m 0,1 km/h (0 Bft) W-SW 250 0 min 0 min 1,7 C 2,6 C
03.11.2012 19:15 2,1 C 94 % 1001 hPa 0,0 l/m 7,2 km/h (2 Bft) W-SW 250 0 min 0 min 1,2 C 1,3 C
03.11.2012 19:30 2,0 C 95 % 1001 hPa 0,0 l/m 9,0 km/h (2 Bft) S-SW22.5 200 0 min 0 min 1,3 C -0,4 C
03.11.2012 19:45 2,4 C 96 % 1001 hPa 0,0 l/m 9,4 km/h (2 Bft) W-SW22.5 250 0 min 0 min 1,8 C -0,3 C
03.11.2012 20:00 2,4 C 96 % 1001 hPa 0,0 l/m 7,6 km/h (2 Bft) SW 235 0 min 0 min 1,8 C 1,2 C
03.11.2012 20:16 2,1 C 96 % 1001 hPa 0,0 l/m 6,5 km/h (2 Bft) S-SW 200 0 min 0 min 1,5 C 2,0 C
03.11.2012 20:30 2,1 C 96 % 1001 hPa 0,0 l/m 7,5 km/h (2 Bft) S-SW22.5 210 0 min 0 min 1,5 C 1,0 C
03.11.2012 20:45 1,9 C 96 % 1001 hPa 0,0 l/m 7,6 km/h (2 Bft) SW 220 0 min 0 min 1,3 C 0,7 C
03.11.2012 21:00 1,7 C 96 % 1001 hPa 0,0 l/m 10,1 km/h (2 Bft) SW45 235 0 min 0 min 1,1 C -1,7 C
03.11.2012 21:15 1,7 C 97 % 1001 hPa 0,0 l/m 4,5 km/h (1 Bft) W-SW 250 0 min 0 min 1,3 C 1,7 C
03.11.2012 21:30 1,5 C 97 % 1001 hPa 0,0 l/m 5,2 km/h (1 Bft) W-SW 245 0 min 0 min 1,1 C 1,5 C
03.11.2012 21:45 1,9 C 98 % 1002 hPa 0,0 l/m 11,3 km/h (2 Bft) SW22.5 215 0 min 0 min 1,6 C -2,3 C
03.11.2012 22:00 2,6 C 98 % 1001 hPa 0,0 l/m 10,9 km/h (2 Bft) W-SW45 240 0 min 0 min 2,3 C -1,2 C
03.11.2012 22:15 3,1 C 98 % 1002 hPa 0,0 l/m 12,6 km/h (3 Bft) W-SW 250 0 min 0 min 2,8 C -1,8 C
03.11.2012 22:30 3,4 C 98 % 1002 hPa 0,0 l/m 18,1 km/h (3 Bft) SW45 230 0 min 0 min 3,1 C -4,4 C
03.11.2012 22:45 3,5 C 98 % 1002 hPa 0,0 l/m 16,0 km/h (3 Bft) SW45 225 0 min 0 min 3,2 C -3,3 C
03.11.2012 23:00 3,6 C 98 % 1002 hPa 0,0 l/m 15,8 km/h (3 Bft) SW22.5 230 0 min 0 min 3,3 C -3,0 C
03.11.2012 23:15 3,6 C 98 % 1002 hPa 0,0 l/m 17,7 km/h (3 Bft) W-SW22.5 240 0 min 0 min 3,3 C -4,0 C
03.11.2012 23:30 3,5 C 98 % 1002 hPa 0,0 l/m 14,4 km/h (3 Bft) W-SW22.5 250 0 min 0 min 3,2 C -2,4 C
03.11.2012 23:45 3,6 C 98 % 1002 hPa 0,0 l/m 23,8 km/h (4 Bft) W-SW22.5 255 0 min 0 min 3,3 C -6,4 C
_ Min-Zeit 21:30 15:00 10:45 - 19:00 - - - - 21:30 00:24
Minimum _ 1,5 C 94 % 996 hPa - 0,1 km/h (0 Bft) - - - - 1,1 C -9,9 C
_ Max-Zeit 13:45 12:00 21:45 11:30 14:15 - - 00:09 10:31 13:45 12:30
Maximum _ 7,4 C 98 % 1002 hPa 3,3 l/m 41,8 km/h
W (6 Bft)
- - 0 min 22 min 7,0 C 5,6 C
Durchschnitt _ 4,0 C 96 % 1000 hPa #16,2 l/m 20,1 km/h (4 Bft) SW - #0 min. #5:06 h 3,4 C -3,7 C